Time;durP1;ratioP1;P1;durP2;ratioP2;P2;SDS_P1;SDS_P2;PMS_P1;PMS_P2;Temp;Humidity;BMP_temperature;BMP_pressure;BME280_temperature;BME280_humidity;BME280_pressure;Samples;Min_cycle;Max_cycle;Signal;HPM_P1;HPM_P2
2024/01/04 00:00:23;;;;;;;5.97;2.65;;;4.80;99.90;;;;;;5055032;28;20027;-63
2024/01/04 00:02:50;;;;;;;8.93;4.22;;;4.70;99.90;;;;;;5054988;28;20036;-63
2024/01/04 00:05:16;;;;;;;6.78;3.10;;;4.70;99.90;;;;;;5054861;28;20037;-63
2024/01/04 00:07:41;;;;;;;9.50;4.35;;;4.70;99.90;;;;;;5055524;28;20036;-63
2024/01/04 00:10:08;;;;;;;5.35;2.80;;;4.60;99.90;;;;;;5053735;28;20025;-63
2024/01/04 00:12:33;;;;;;;8.05;3.45;;;4.60;99.90;;;;;;5053243;28;20032;-63
2024/01/04 00:15:02;;;;;;;7.60;3.42;;;4.50;99.90;;;;;;5054986;28;20029;-63
2024/01/04 00:17:28;;;;;;;;;;;4.60;99.90;;;;;;5055366;28;20028;-63
2024/01/04 00:19:53;;;;;;;7.65;3.17;;;4.50;99.90;;;;;;5053522;28;19905;-63
2024/01/04 00:22:19;;;;;;;7.28;2.80;;;4.50;99.90;;;;;;5053541;28;20400;-63
2024/01/04 00:24:45;;;;;;;5.38;2.75;;;4.50;99.90;;;;;;5054301;28;20029;-63
2024/01/04 00:27:10;;;;;;;6.25;2.35;;;4.50;99.90;;;;;;5054513;28;20028;-63
2024/01/04 00:29:36;;;;;;;6.50;2.92;;;4.50;99.90;;;;;;5054426;28;20373;-63
2024/01/04 00:32:01;;;;;;;3.45;0.68;;;4.50;99.90;;;;;;5054439;28;20028;-63
2024/01/04 00:34:27;;;;;;;6.03;1.33;;;5.00;99.90;;;;;;5053163;28;20039;-63
2024/01/04 00:36:53;;;;;;;0.28;0.25;;;5.80;99.90;;;;;;5054045;28;20062;-62
2024/01/04 00:39:18;;;;;;;3.50;0.50;;;6.60;99.90;;;;;;5054320;28;20064;-63
2024/01/04 00:41:44;;;;;;;0.63;0.30;;;7.30;99.90;;;;;;5053034;28;20469;-63
2024/01/04 00:44:10;;;;;;;0.50;0.35;;;7.70;99.90;;;;;;5054237;28;20044;-63
2024/01/04 00:46:35;;;;;;;2.75;0.20;;;7.90;99.90;;;;;;5053815;28;20040;-63
2024/01/04 00:49:01;;;;;;;0.95;0.10;;;8.60;99.90;;;;;;5053941;28;20040;-63
2024/01/04 00:51:27;;;;;;;0.10;0.00;;;9.00;99.90;;;;;;5052866;28;20128;-63
2024/01/04 00:53:52;;;;;;;2.72;0.10;;;9.80;99.90;;;;;;5054888;28;20342;-63
2024/01/04 00:56:18;;;;;;;0.50;0.10;;;10.10;99.90;;;;;;5054052;28;20040;-63
2024/01/04 00:58:44;;;;;;;0.45;0.25;;;10.20;99.40;;;;;;5054030;28;20487;-63
2024/01/04 01:01:09;;;;;;;0.08;0.00;;;10.50;98.50;;;;;;5054026;28;20043;-63
2024/01/04 01:03:35;;;;;;;2.33;0.10;;;10.60;98.00;;;;;;5053927;28;20025;-63
2024/01/04 01:06:00;;;;;;;1.23;0.00;;;10.80;97.40;;;;;;5052786;28;20036;-64
2024/01/04 01:08:26;;;;;;;0.20;0.08;;;10.90;97.00;;;;;;5053631;28;20484;-63
2024/01/04 01:10:52;;;;;;;0.20;0.05;;;10.90;96.80;;;;;;5052265;28;20116;-63
2024/01/04 01:13:20;;;;;;;0.75;0.10;;;10.90;96.90;;;;;;5052657;28;20025;-63
2024/01/04 01:15:49;;;;;;;0.40;0.20;;;10.90;96.80;;;;;;5053838;28;20079;-63
2024/01/04 01:18:14;;;;;;;0.40;0.10;;;10.90;96.70;;;;;;5053843;28;20025;-63
2024/01/04 01:20:40;;;;;;;0.75;0.10;;;10.90;96.70;;;;;;5053481;28;20040;-63
2024/01/04 01:23:06;;;;;;;0.73;0.00;;;10.90;96.70;;;;;;5053720;28;20100;-63
2024/01/04 01:25:33;;;;;;;0.57;0.00;;;10.90;96.60;;;;;;5053633;28;20078;-63
2024/01/04 01:27:58;;;;;;;0.75;0.00;;;10.90;96.60;;;;;;5053938;28;20449;-64
2024/01/04 01:30:24;;;;;;;0.95;0.20;;;11.10;96.20;;;;;;5053866;28;20093;-63
2024/01/04 01:32:50;;;;;;;1.30;0.08;;;11.10;96.10;;;;;;5052538;28;20025;-63
2024/01/04 01:35:15;;;;;;;0.95;0.10;;;11.10;96.10;;;;;;5053884;28;20029;-63
2024/01/04 01:37:41;;;;;;;0.20;0.00;;;11.10;95.90;;;;;;5053728;28;20033;-63
2024/01/04 01:40:07;;;;;;;1.05;0.00;;;11.10;95.80;;;;;;5053590;28;20079;-63
2024/01/04 01:42:33;;;;;;;0.50;0.00;;;11.10;95.80;;;;;;5055760;28;20033;-63
2024/01/04 01:45:00;;;;;;;0.30;0.10;;;11.10;95.80;;;;;;5057592;28;20081;-63
2024/01/04 01:47:26;;;;;;;0.65;0.08;;;11.10;95.60;;;;;;5057532;28;20025;-63
2024/01/04 01:49:53;;;;;;;2.25;0.10;;;11.10;95.80;;;;;;5057505;28;20025;-63
2024/01/04 01:52:19;;;;;;;0.08;0.00;;;11.00;96.00;;;;;;5057382;28;20040;-63
2024/01/04 01:54:47;;;;;;;0.05;0.00;;;10.90;96.10;;;;;;5056419;28;20025;-63
2024/01/04 01:57:13;;;;;;;0.10;0.00;;;10.90;96.10;;;;;;5057382;28;20213;-63
2024/01/04 01:59:39;;;;;;;0.65;0.00;;;10.80;96.10;;;;;;5057618;28;20048;-63
2024/01/04 02:02:06;;;;;;;0.15;0.00;;;10.90;96.20;;;;;;5057507;28;20025;-63
2024/01/04 02:04:32;;;;;;;0.55;0.10;;;10.80;96.20;;;;;;5057269;28;20029;-63
2024/01/04 02:06:58;;;;;;;1.88;0.10;;;10.80;96.30;;;;;;5056867;28;20373;-63
2024/01/04 02:09:24;;;;;;;0.47;0.00;;;10.80;96.20;;;;;;5056855;28;20389;-63
2024/01/04 02:11:49;;;;;;;0.00;0.00;;;10.80;96.20;;;;;;5055823;28;20029;-63
2024/01/04 02:14:15;;;;;;;0.80;0.00;;;10.80;96.30;;;;;;5055805;28;20620;-63
2024/01/04 02:16:41;;;;;;;0.95;0.00;;;10.80;96.00;;;;;;5057020;28;20108;-63
2024/01/04 02:19:10;;;;;;;0.00;0.00;;;10.90;95.80;;;;;;5056685;28;20028;-63
2024/01/04 02:21:39;;;;;;;2.45;0.00;;;10.90;95.80;;;;;;5057025;28;20032;-63
2024/01/04 02:24:07;;;;;;;0.20;0.10;;;10.90;95.70;;;;;;5056998;28;20035;-63
2024/01/04 02:26:33;;;;;;;0.38;0.00;;;10.80;96.00;;;;;;5056815;28;20045;-63
2024/01/04 02:28:59;;;;;;;0.10;0.10;;;10.90;95.80;;;;;;5056976;28;20048;-63
2024/01/04 02:31:24;;;;;;;0.00;0.00;;;10.90;95.70;;;;;;5056077;28;20453;-63
2024/01/04 02:33:50;;;;;;;0.00;0.00;;;10.90;95.80;;;;;;5055423;28;20025;-63
2024/01/04 02:36:15;;;;;;;0.25;0.00;;;11.00;95.70;;;;;;5055571;28;20035;-63
2024/01/04 02:38:41;;;;;;;2.72;0.00;;;11.00;95.80;;;;;;5056828;28;20048;-63
2024/01/04 02:41:07;;;;;;;1.85;0.00;;;10.90;95.90;;;;;;5055448;28;20112;-64
2024/01/04 02:43:32;;;;;;;0.00;0.00;;;10.90;96.40;;;;;;5055667;28;20053;-64
2024/01/04 02:45:58;;;;;;;1.65;0.03;;;10.90;96.70;;;;;;5056142;28;20036;-64
2024/01/04 02:48:23;;;;;;;0.00;0.00;;;10.80;97.00;;;;;;5056816;28;20036;-63
2024/01/04 02:50:49;;;;;;;0.52;0.00;;;10.70;97.30;;;;;;5055127;28;20021;-63
2024/01/04 02:53:14;;;;;;;0.40;0.00;;;10.70;97.50;;;;;;5054949;28;20060;-63
2024/01/04 02:55:40;;;;;;;2.40;0.00;;;;;;;;;;5056352;28;20523;-63
2024/01/04 02:58:06;;;;;;;0.10;0.00;;;10.50;97.80;;;;;;5056299;28;20526;-64
2024/01/04 03:00:32;;;;;;;0.00;0.00;;;10.50;98.20;;;;;;5054994;28;20067;-63
2024/01/04 03:02:58;;;;;;;0.60;0.00;;;10.50;98.30;;;;;;5054959;28;20070;-63
2024/01/04 03:05:23;;;;;;;0.00;0.00;;;10.50;98.40;;;;;;5056033;28;20037;-63
2024/01/04 03:07:49;;;;;;;0.00;0.00;;;10.50;98.50;;;;;;5054825;28;20098;-63
2024/01/04 03:10:14;;;;;;;0.00;0.00;;;10.40;98.80;;;;;;5054971;28;20033;-63
2024/01/04 03:12:40;;;;;;;1.05;0.20;;;10.30;98.90;;;;;;5056449;28;20082;-63
2024/01/04 03:15:07;;;;;;;0.00;0.00;;;10.20;99.00;;;;;;5055922;28;20043;-63
2024/01/04 03:17:33;;;;;;;0.20;0.00;;;10.30;99.00;;;;;;5055902;28;20078;-63
2024/01/04 03:19:58;;;;;;;0.32;0.00;;;10.20;99.10;;;;;;5055545;28;20029;-64
2024/01/04 03:22:24;;;;;;;0.10;0.10;;;10.20;99.10;;;;;;5056073;28;20029;-63
2024/01/04 03:24:50;;;;;;;0.00;0.00;;;10.20;99.20;;;;;;5055404;28;20027;-63
2024/01/04 03:27:15;;;;;;;1.00;0.00;;;10.20;99.30;;;;;;5055744;28;20111;-63
2024/01/04 03:29:41;;;;;;;0.63;0.00;;;10.20;99.40;;;;;;5055750;28;20024;-63
2024/01/04 03:32:07;;;;;;;0.43;0.00;;;10.10;99.50;;;;;;5054313;28;20025;-63
2024/01/04 03:34:33;;;;;;;0.13;0.00;;;10.10;99.70;;;;;;5055604;28;20025;-63
2024/01/04 03:36:59;;;;;;;0.50;0.00;;;10.10;99.70;;;;;;5054269;28;20056;-63
2024/01/04 03:39:25;;;;;;;0.10;0.00;;;10.10;99.80;;;;;;5055462;28;20071;-64
2024/01/04 03:41:50;;;;;;;0.28;0.00;;;10.00;99.90;;;;;;5055394;28;20029;-63
2024/01/04 03:44:16;;;;;;;0.00;0.00;;;9.90;99.90;;;;;;5055311;28;20059;-63
2024/01/04 03:46:41;;;;;;;1.40;0.25;;;9.90;99.90;;;;;;5053948;28;20036;-63
2024/01/04 03:49:07;;;;;;;1.02;0.00;;;9.90;99.90;;;;;;5055479;28;20083;-63
2024/01/04 03:51:33;;;;;;;0.20;0.10;;;9.90;99.90;;;;;;5055134;28;20034;-63
2024/01/04 03:53:59;;;;;;;0.05;0.00;;;9.80;99.90;;;;;;5053588;28;20131;-63
2024/01/04 03:56:24;;;;;;;0.32;0.00;;;9.80;99.90;;;;;;5055129;28;20037;-63
2024/01/04 03:58:50;;;;;;;0.43;0.00;;;9.70;99.90;;;;;;5055350;28;20032;-63
2024/01/04 04:01:15;;;;;;;0.10;0.00;;;9.70;99.90;;;;;;5054757;28;20106;-64
2024/01/04 04:03:41;;;;;;;1.95;0.28;;;9.70;99.90;;;;;;5055217;28;20039;-63
2024/01/04 04:06:07;;;;;;;0.10;0.03;;;9.70;99.90;;;;;;5054519;28;20461;-63
2024/01/04 04:08:34;;;;;;;1.88;0.00;;;9.80;99.90;;;;;;5055361;28;20029;-63
2024/01/04 04:10:59;;;;;;;0.00;0.00;;;9.70;99.90;;;;;;5054994;28;20032;-64
2024/01/04 04:13:25;;;;;;;0.90;0.00;;;9.70;99.90;;;;;;5054769;28;20465;-63
2024/01/04 04:15:51;;;;;;;1.90;0.28;;;9.60;99.90;;;;;;5054970;28;20055;-63
2024/01/04 04:18:16;;;;;;;0.75;0.10;;;9.60;99.90;;;;;;5054843;28;20406;-63
2024/01/04 04:20:42;;;;;;;0.00;0.00;;;9.50;99.90;;;;;;5054881;28;20028;-63
2024/01/04 04:23:08;;;;;;;0.30;0.00;;;9.50;99.90;;;;;;5054822;28;20036;-63
2024/01/04 04:25:36;;;;;;;0.30;0.00;;;9.50;99.90;;;;;;5054500;28;20036;-63
2024/01/04 04:28:02;;;;;;;0.10;0.00;;;9.40;99.90;;;;;;5053282;28;20025;-64
2024/01/04 04:30:29;;;;;;;1.30;0.00;;;9.30;99.90;;;;;;5054965;28;20025;-63
2024/01/04 04:32:55;;;;;;;0.73;0.00;;;9.30;99.90;;;;;;5053184;28;20368;-63
2024/01/04 04:35:21;;;;;;;1.58;0.00;;;9.30;99.90;;;;;;5054422;28;20021;-63
2024/01/04 04:37:47;;;;;;;0.55;0.00;;;9.40;99.90;;;;;;5054067;28;20025;-63
2024/01/04 04:40:12;;;;;;;0.30;0.00;;;9.40;99.90;;;;;;5053077;28;20025;-63
2024/01/04 04:42:38;;;;;;;0.20;0.00;;;9.40;99.90;;;;;;5054631;28;20029;-63
2024/01/04 04:45:04;;;;;;;0.15;0.00;;;9.60;99.90;;;;;;5054969;28;20475;-64
2024/01/04 04:47:30;;;;;;;0.40;0.10;;;9.60;99.90;;;;;;5054302;28;20104;-67
2024/01/04 04:49:56;;;;;;;0.45;0.00;;;9.60;99.90;;;;;;5054862;28;20114;-64
2024/01/04 04:52:22;;;;;;;0.32;0.00;;;9.70;99.90;;;;;;5054162;28;20064;-63
2024/01/04 04:54:48;;;;;;;1.20;0.00;;;9.70;99.70;;;;;;5054163;28;20025;-64
2024/01/04 04:57:13;;;;;;;2.08;0.10;;;9.70;99.70;;;;;;5052802;28;20065;-63
2024/01/04 04:59:39;;;;;;;0.10;0.00;;;9.70;99.40;;;;;;5054081;28;20051;-62
2024/01/04 05:02:04;;;;;;;0.75;0.00;;;9.80;99.10;;;;;;5053977;28;20060;-62
2024/01/04 05:04:30;;;;;;;0.47;0.00;;;9.90;98.70;;;;;;5053728;28;20021;-63
2024/01/04 05:06:56;;;;;;;0.08;0.00;;;10.00;98.40;;;;;;5054155;28;20075;-63
2024/01/04 05:09:22;;;;;;;0.35;0.15;;;10.00;98.50;;;;;;5053631;28;20025;-63
2024/01/04 05:11:47;;;;;;;0.08;0.00;;;9.90;98.50;;;;;;5053595;28;20075;-63
2024/01/04 05:14:13;;;;;;;0.85;0.00;;;9.90;98.60;;;;;;5054032;28;20029;-63
2024/01/04 05:16:38;;;;;;;0.10;0.00;;;9.80;98.40;;;;;;5052866;28;20070;-63
2024/01/04 05:19:09;;;;;;;0.35;0.05;;;9.90;98.50;;;;;;5053813;28;20031;-63
2024/01/04 05:21:35;;;;;;;2.28;0.00;;;9.80;98.60;;;;;;5054173;28;20108;-63
2024/01/04 05:24:00;;;;;;;1.20;0.10;;;9.90;98.30;;;;;;5053971;28;20488;-63
2024/01/04 05:26:26;;;;;;;0.32;0.00;;;9.90;98.50;;;;;;5053745;28;20033;-63
2024/01/04 05:28:52;;;;;;;0.82;0.00;;;9.90;98.40;;;;;;5052375;28;20033;-63
2024/01/04 05:31:19;;;;;;;1.90;0.00;;;10.00;98.10;;;;;;5053427;28;20028;-63
2024/01/04 05:33:46;;;;;;;0.40;0.00;;;10.00;97.90;;;;;;5052343;28;20103;-63
2024/01/04 05:36:12;;;;;;;0.28;0.15;;;10.10;97.70;;;;;;5053335;28;20384;-63
2024/01/04 05:38:37;;;;;;;0.22;0.00;;;10.10;97.80;;;;;;5053638;28;20021;-63
2024/01/04 05:41:06;;;;;;;0.52;0.00;;;10.00;97.70;;;;;;5052569;28;20037;-63
2024/01/04 05:43:33;;;;;;;0.10;0.00;;;10.10;97.40;;;;;;5053246;28;20388;-63
2024/01/04 05:46:02;;;;;;;1.35;0.00;;;10.00;97.50;;;;;;5053526;28;20393;-64
2024/01/04 05:48:27;;;;;;;1.70;0.73;;;10.00;97.50;;;;;;5053976;28;20112;-63
2024/01/04 05:50:53;;;;;;;0.10;0.00;;;10.00;97.40;;;;;;5053961;28;20075;-67
2024/01/04 05:53:19;;;;;;;0.80;0.05;;;10.00;97.20;;;;;;5053230;28;20541;-64
2024/01/04 05:55:44;;;;;;;0.22;0.15;;;10.10;96.90;;;;;;5054040;28;20492;-67
2024/01/04 05:58:10;;;;;;;0.30;0.00;;;10.10;96.70;;;;;;5054395;28;20040;-64
2024/01/04 06:00:36;;;;;;;0.25;0.00;;;10.20;96.40;;;;;;5054781;28;20441;-63
2024/01/04 06:03:01;;;;;;;1.77;0.00;;;10.20;96.50;;;;;;5054601;28;20140;-63
2024/01/04 06:05:27;;;;;;;0.10;0.00;;;10.20;96.60;;;;;;5053857;28;20178;-63
2024/01/04 06:07:53;;;;;;;0.35;0.05;;;10.10;96.60;;;;;;5053269;28;20532;-63
2024/01/04 06:10:18;;;;;;;2.08;0.17;;;10.20;96.40;;;;;;5053401;28;20108;-64
2024/01/04 06:12:44;;;;;;;1.13;0.25;;;10.20;96.40;;;;;;5052225;28;20124;-63
2024/01/04 06:15:10;;;;;;;0.68;0.10;;;10.20;96.50;;;;;;5053262;28;20025;-63
2024/01/04 06:17:36;;;;;;;0.57;0.00;;;10.10;96.60;;;;;;5052027;28;20037;-63
2024/01/04 06:20:02;;;;;;;1.67;0.00;;;10.10;96.80;;;;;;5053722;28;20029;-63
2024/01/04 06:22:28;;;;;;;0.82;0.00;;;10.10;97.00;;;;;;5052052;28;20029;-63
2024/01/04 06:24:53;;;;;;;0.98;0.10;;;10.00;97.20;;;;;;5053125;28;20063;-63
2024/01/04 06:27:19;;;;;;;0.20;0.10;;;10.00;97.40;;;;;;5053432;28;20448;-63
2024/01/04 06:29:45;;;;;;;0.00;0.00;;;10.00;97.70;;;;;;5056420;28;20033;-63
2024/01/04 06:32:10;;;;;;;2.72;0.10;;;9.90;98.00;;;;;;5055457;28;20021;-63
2024/01/04 06:34:36;;;;;;;0.20;0.00;;;9.90;98.40;;;;;;5056485;28;20035;-63
2024/01/04 06:37:02;;;;;;;0.70;0.03;;;9.80;98.60;;;;;;5056763;28;20040;-63
2024/01/04 06:39:28;;;;;;;2.13;0.00;;;9.80;98.70;;;;;;5056627;28;20028;-62
2024/01/04 06:41:54;;;;;;;0.75;0.00;;;9.80;98.80;;;;;;5055716;28;20044;-62
2024/01/04 06:44:20;;;;;;;1.67;0.10;;;9.80;99.10;;;;;;5056537;28;20044;-62
2024/01/04 06:46:45;;;;;;;2.53;0.47;;;9.70;99.30;;;;;;5056109;28;20033;-62
2024/01/04 06:49:11;;;;;;;1.15;0.10;;;9.70;99.40;;;;;;5056456;28;20029;-63
2024/01/04 06:51:36;;;;;;;2.28;0.10;;;9.70;99.30;;;;;;5056718;28;20028;-62
2024/01/04 06:54:03;;;;;;;0.17;0.00;;;9.70;99.40;;;;;;5056970;28;20396;-62
2024/01/04 06:56:28;;;;;;;0.25;0.00;;;9.70;99.50;;;;;;5056070;28;20024;-62
2024/01/04 06:58:55;;;;;;;2.65;0.63;;;9.70;99.60;;;;;;5056354;28;20392;-62
2024/01/04 07:01:20;;;;;;;1.17;0.10;;;9.70;99.70;;;;;;5054967;28;20468;-62
2024/01/04 07:03:46;;;;;;;1.05;0.20;;;9.60;99.80;;;;;;5056147;28;20044;-63
2024/01/04 07:06:13;;;;;;;2.35;0.05;;;9.60;99.90;;;;;;5056198;28;20079;-62
2024/01/04 07:08:39;;;;;;;0.25;0.00;;;9.60;99.90;;;;;;5056110;28;20022;-63
2024/01/04 07:11:05;;;;;;;2.45;0.10;;;9.60;99.90;;;;;;5054722;28;20051;-62
2024/01/04 07:13:33;;;;;;;1.02;0.17;;;9.60;99.60;;;;;;5056016;28;20045;-62
2024/01/04 07:15:59;;;;;;;0.43;0.00;;;9.80;99.30;;;;;;5055978;28;20029;-63
2024/01/04 07:18:24;;;;;;;0.52;0.08;;;9.70;99.00;;;;;;5055039;28;20120;-63
2024/01/04 07:20:50;;;;;;;0.52;0.20;;;9.80;98.80;;;;;;5055845;28;20108;-63
2024/01/04 07:23:17;;;;;;;0.93;0.00;;;9.80;98.80;;;;;;5054923;28;20423;-63
2024/01/04 07:25:43;;;;;;;0.35;0.00;;;9.80;98.80;;;;;;5055827;28;20120;-63
2024/01/04 07:28:09;;;;;;;1.00;0.20;;;9.90;98.60;;;;;;5054433;28;20078;-63
2024/01/04 07:30:35;;;;;;;0.75;0.10;;;9.90;98.70;;;;;;5055905;28;20478;-63
2024/01/04 07:33:00;;;;;;;0.20;0.00;;;9.90;98.60;;;;;;5055595;28;20021;-64
2024/01/04 07:35:26;;;;;;;0.90;0.03;;;10.00;98.70;;;;;;5053955;28;20110;-64
2024/01/04 07:37:52;;;;;;;2.22;0.10;;;9.90;98.70;;;;;;5055574;28;20104;-64
2024/01/04 07:40:17;;;;;;;0.20;0.00;;;9.90;98.70;;;;;;5053477;28;20079;-63
2024/01/04 07:42:43;;;;;;;0.10;0.00;;;10.00;98.70;;;;;;5054223;28;20078;-58
2024/01/04 07:45:09;;;;;;;0.20;0.00;;;10.20;99.90;;;;;;5054023;28;20108;-58
2024/01/04 07:47:37;;;;;;;0.82;0.00;;;10.60;99.90;;;;;;5054139;28;20124;-58
2024/01/04 07:50:04;;;;;;;1.63;0.00;;;10.80;98.90;;;;;;5055051;28;20035;-64
2024/01/04 07:52:30;;;;;;;0.30;0.00;;;10.60;97.50;;;;;;5055328;28;20047;-64
2024/01/04 07:54:55;;;;;;;0.20;0.00;;;10.40;98.00;;;;;;5054324;28;20392;-64
2024/01/04 07:57:21;;;;;;;0.20;0.13;;;10.30;98.20;;;;;;5053981;28;20028;-64
2024/01/04 07:59:47;;;;;;;0.90;0.20;;;10.30;98.50;;;;;;5053382;28;20059;-64
2024/01/04 08:02:12;;;;;;;0.50;0.10;;;10.30;98.40;;;;;;5053770;28;20063;-64
2024/01/04 08:04:38;;;;;;;0.70;0.17;;;10.30;98.30;;;;;;5055253;28;20025;-63
2024/01/04 08:07:03;;;;;;;0.38;0.10;;;10.40;98.30;;;;;;5053619;28;20041;-63
2024/01/04 08:09:29;;;;;;;4.47;0.20;;;10.40;98.30;;;;;;5054922;28;20036;-63
2024/01/04 08:11:55;;;;;;;0.28;0.10;;;10.50;98.00;;;;;;5053676;28;20512;-63
2024/01/04 08:14:20;;;;;;;0.43;0.00;;;10.60;97.70;;;;;;5053688;28;20124;-64
2024/01/04 08:16:46;;;;;;;0.25;0.00;;;10.60;97.70;;;;;;5053403;28;20033;-64
2024/01/04 08:19:12;;;;;;;2.55;0.10;;;10.80;97.60;;;;;;5054892;28;20412;-64
2024/01/04 08:21:37;;;;;;;1.85;0.55;;;10.80;97.20;;;;;;5053998;28;20036;-64
2024/01/04 08:24:03;;;;;;;1.50;0.00;;;10.90;97.10;;;;;;5054629;28;20033;-63
2024/01/04 08:26:29;;;;;;;1.27;0.00;;;10.90;96.90;;;;;;5054576;28;20041;-64
2024/01/04 08:28:55;;;;;;;0.73;0.00;;;11.00;96.70;;;;;;5054821;28;20449;-63
2024/01/04 08:31:20;;;;;;;0.73;0.00;;;11.10;96.20;;;;;;5054606;28;20385;-64
2024/01/04 08:33:46;;;;;;;0.22;0.00;;;11.20;96.10;;;;;;5053279;28;20164;-64
2024/01/04 08:36:12;;;;;;;1.25;0.15;;;11.30;95.90;;;;;;5053274;28;20035;-64
2024/01/04 08:38:37;;;;;;;0.45;0.00;;;11.30;95.90;;;;;;5053208;28;20024;-64
2024/01/04 08:41:03;;;;;;;1.10;0.10;;;11.30;95.90;;;;;;5054462;28;20043;-64
2024/01/04 08:43:29;;;;;;;1.08;0.13;;;11.10;96.30;;;;;;5055608;28;20411;-67
2024/01/04 08:45:54;;;;;;;0.00;0.00;;;11.10;96.50;;;;;;5054887;28;20123;-64
2024/01/04 08:48:20;;;;;;;1.08;0.00;;;10.90;96.80;;;;;;5055245;28;20036;-65
2024/01/04 08:50:45;;;;;;;0.17;0.00;;;10.80;97.40;;;;;;5053453;28;20503;-63
2024/01/04 08:53:20;;;;;;;0.25;0.00;;;10.60;98.10;;;;;;5053851;28;20076;-64
2024/01/04 08:55:46;;;;;;;0.10;0.00;;;10.40;98.70;;;;;;5053901;28;20040;-64
2024/01/04 08:58:12;;;;;;;0.30;0.08;;;10.30;99.30;;;;;;5054409;28;20036;-64
2024/01/04 09:00:37;;;;;;;0.22;0.00;;;10.30;99.70;;;;;;5053961;28;20029;-64
2024/01/04 09:03:03;;;;;;;0.65;0.00;;;10.30;99.90;;;;;;5053770;28;20392;-63
2024/01/04 09:05:30;;;;;;;1.13;0.00;;;10.20;99.90;;;;;;5053966;28;20032;-64
2024/01/04 09:07:55;;;;;;;0.98;0.13;;;10.20;99.90;;;;;;5053981;28;20017;-63
2024/01/04 09:10:21;;;;;;;0.50;0.47;;;10.10;99.90;;;;;;5052591;28;20025;-63
2024/01/04 09:12:47;;;;;;;0.80;0.20;;;10.10;99.90;;;;;;5053558;28;20036;-64
2024/01/04 09:15:13;;;;;;;1.80;0.00;;;10.00;99.90;;;;;;5052566;28;20029;-63
2024/01/04 09:17:42;;;;;;;0.60;0.00;;;10.10;99.90;;;;;;5052636;28;20079;-63
2024/01/04 09:20:08;;;;;;;0.00;0.00;;;10.30;99.90;;;;;;5053852;28;20100;-63
2024/01/04 09:22:34;;;;;;;0.47;0.00;;;10.90;99.50;;;;;;5053579;28;20392;-63
2024/01/04 09:24:59;;;;;;;0.65;0.00;;;11.20;98.70;;;;;;5052494;28;20036;-63
2024/01/04 09:27:25;;;;;;;1.27;0.00;;;11.60;98.30;;;;;;5053313;28;20040;-64
2024/01/04 09:29:52;;;;;;;0.17;0.00;;;12.40;96.50;;;;;;5053915;28;20075;-64
2024/01/04 09:32:19;;;;;;;0.25;0.00;;;12.80;95.90;;;;;;5052119;28;20107;-64
2024/01/04 09:34:44;;;;;;;0.17;0.03;;;12.70;95.60;;;;;;5053666;28;20120;-64
2024/01/04 09:37:10;;;;;;;0.95;0.00;;;12.00;96.70;;;;;;5052301;28;20458;-66
2024/01/04 09:39:39;;;;;;;0.00;0.00;;;11.70;97.20;;;;;;5053699;28;20154;-64
2024/01/04 09:42:06;;;;;;;0.28;0.00;;;11.60;97.80;;;;;;5052377;28;20026;-64
2024/01/04 09:44:34;;;;;;;0.75;0.10;;;12.00;97.20;;;;;;5052273;28;20029;-64
2024/01/04 09:47:07;;;;;;;0.00;0.00;;;12.30;97.00;;;;;;5053593;28;20043;-63
2024/01/04 09:49:34;;;;;;;0.00;0.00;;;12.40;96.20;;;;;;5052331;28;20160;-63
2024/01/04 09:52:00;;;;;;;1.08;0.00;;;12.20;96.60;;;;;;5053264;28;20112;-63
2024/01/04 09:54:27;;;;;;;0.45;0.10;;;12.20;97.00;;;;;;5053862;28;20112;-63
2024/01/04 09:56:54;;;;;;;0.30;0.00;;;12.00;97.30;;;;;;5053705;28;20040;-63
2024/01/04 09:59:21;;;;;;;0.55;0.00;;;11.80;97.90;;;;;;5053689;28;20025;-64
2024/01/04 10:01:47;;;;;;;1.08;0.00;;;11.80;98.10;;;;;;5052090;28;20025;-63
2024/01/04 10:04:16;;;;;;;0.95;0.00;;;11.70;98.20;;;;;;5055666;28;20029;-64
2024/01/04 10:06:43;;;;;;;0.85;0.00;;;11.90;98.10;;;;;;5057467;28;20060;-63
2024/01/04 10:09:18;;;;;;;0.00;0.00;;;11.90;98.10;;;;;;5055992;28;20103;-64
2024/01/04 10:11:52;;;;;;;1.48;0.10;;;11.80;98.00;;;;;;5057201;28;20033;-63
2024/01/04 10:14:19;;;;;;;0.38;0.25;;;11.60;98.60;;;;;;5055904;28;20469;-64
2024/01/04 10:16:47;;;;;;;0.20;0.00;;;11.80;98.50;;;;;;5057091;28;20025;-64
2024/01/04 10:19:12;;;;;;;0.00;0.00;;;11.70;98.10;;;;;;5057175;28;20025;-64
2024/01/04 10:21:38;;;;;;;0.20;0.00;;;11.80;97.90;;;;;;5057494;28;20358;-64
2024/01/04 10:24:04;;;;;;;0.10;0.00;;;11.80;97.90;;;;;;5056934;28;20032;-64
2024/01/04 10:26:30;;;;;;;0.43;0.00;;;11.70;98.20;;;;;;5056926;28;20112;-64
2024/01/04 10:28:56;;;;;;;0.20;0.00;;;11.90;97.80;;;;;;5056974;28;20036;-64
2024/01/04 10:31:22;;;;;;;0.00;0.00;;;12.00;97.20;;;;;;5056562;28;20108;-64
2024/01/04 10:33:57;;;;;;;0.32;0.00;;;12.00;96.90;;;;;;5057488;28;20357;-64
2024/01/04 10:36:23;;;;;;;1.00;0.00;;;12.20;97.10;;;;;;5057060;28;20036;-64
2024/01/04 10:38:49;;;;;;;0.60;0.00;;;11.90;97.00;;;;;;5056666;28;20427;-64
2024/01/04 10:41:17;;;;;;;1.02;0.00;;;11.80;97.30;;;;;;5055326;28;20021;-64
2024/01/04 10:43:43;;;;;;;2.10;0.10;;;11.70;97.60;;;;;;5055264;28;20461;-63
2024/01/04 10:46:10;;;;;;;0.17;0.10;;;11.70;97.60;;;;;;5055094;28;20041;-64
2024/01/04 10:48:37;;;;;;;0.15;0.00;;;11.60;97.90;;;;;;5056592;28;20032;-63
2024/01/04 10:51:04;;;;;;;0.10;0.00;;;11.50;98.40;;;;;;5056527;28;20075;-64
2024/01/04 10:53:37;;;;;;;0.65;0.10;;;11.60;98.50;;;;;;5054705;28;20071;-63
2024/01/04 10:56:08;;;;;;;0.05;0.05;;;11.70;98.10;;;;;;5055004;28;20397;-63
2024/01/04 10:58:38;;;;;;;0.85;0.10;;;11.80;98.30;;;;;;5054717;28;20029;-64
2024/01/04 11:01:04;;;;;;;0.00;0.00;;;11.70;98.20;;;;;;5054928;28;20021;-64
2024/01/04 11:03:31;;;;;;;0.20;0.10;;;11.80;98.30;;;;;;5054876;28;20029;-63
2024/01/04 11:06:02;;;;;;;3.15;0.10;;;11.80;98.10;;;;;;5055974;28;20033;-64
2024/01/04 11:08:29;;;;;;;0.25;0.00;;;12.00;97.90;;;;;;5054775;28;20056;-64
2024/01/04 11:10:57;;;;;;;0.32;0.00;;;12.10;97.70;;;;;;5054709;28;20025;-64
2024/01/04 11:13:22;;;;;;;1.77;0.00;;;12.60;96.90;;;;;;5055767;28;20032;-64
2024/01/04 11:15:55;;;;;;;0.20;0.00;;;12.40;96.70;;;;;;5054845;28;20029;-64
2024/01/04 11:18:48;;;;;;;0.22;0.10;;;12.40;97.00;;;;;;5055998;28;20025;-64
2024/01/04 11:21:33;;;;;;;0.80;0.00;;;12.70;96.60;;;;;;5023778;28;20037;-64
2024/01/04 11:24:05;;;;;;;0.90;0.10;;;13.00;95.90;;;;;;5054588;28;20028;-64
2024/01/04 11:26:57;;;;;;;0.38;0.00;;;12.90;95.80;;;;;;5055701;28;20091;-63
2024/01/04 11:29:23;;;;;;;0.52;0.03;;;12.90;95.90;;;;;;5046363;28;20522;-64
2024/01/04 11:31:49;;;;;;;2.15;0.15;;;12.90;95.90;;;;;;5055349;28;20022;-64
2024/01/04 11:34:15;;;;;;;0.63;0.08;;;12.70;96.20;;;;;;5055662;28;20032;-63
2024/01/04 11:36:41;;;;;;;0.10;0.00;;;12.70;96.30;;;;;;5054262;28;20125;-63
2024/01/04 11:39:06;;;;;;;1.58;0.00;;;12.70;96.10;;;;;;5055263;28;20056;-63
2024/01/04 11:41:36;;;;;;;0.32;0.00;;;13.00;95.60;;;;;;5055241;28;20029;-64
2024/01/04 11:44:03;;;;;;;1.38;0.03;;;13.20;95.20;;;;;;5054254;28;20021;-64
2024/01/04 11:46:29;;;;;;;0.25;0.00;;;12.40;95.90;;;;;;5053960;28;20037;-64
2024/01/04 11:49:04;;;;;;;0.68;0.05;;;11.90;96.80;;;;;;5055296;28;20037;-63
2024/01/04 11:51:41;;;;;;;0.00;0.00;;;11.80;97.30;;;;;;5055728;28;20028;-63
2024/01/04 11:54:10;;;;;;;0.45;0.00;;;11.80;97.30;;;;;;5054981;28;20041;-63
2024/01/04 11:56:37;;;;;;;1.15;0.08;;;11.80;96.80;;;;;;5055204;28;20036;-64
2024/01/04 11:59:13;;;;;;;1.52;0.10;;;11.70;97.00;;;;;;5055186;28;20029;-63
2024/01/04 12:01:41;;;;;;;1.33;0.10;;;12.00;96.80;;;;;;5053802;28;20040;-64
2024/01/04 12:04:07;;;;;;;0.28;0.08;;;12.20;96.40;;;;;;5053803;28;20468;-64
2024/01/04 12:06:36;;;;;;;1.92;0.10;;;12.10;96.20;;;;;;5055253;28;20044;-64
2024/01/04 12:09:02;;;;;;;0.47;0.13;;;12.40;96.00;;;;;;5055057;28;20457;-64
2024/01/04 12:11:28;;;;;;;0.40;0.10;;;12.60;95.40;;;;;;5053727;28;20490;-64
2024/01/04 12:13:53;;;;;;;0.90;0.25;;;12.90;95.20;;;;;;5054965;28;20028;-64
2024/01/04 12:16:19;;;;;;;1.70;0.10;;;13.20;94.30;;;;;;5054632;28;20029;-64
2024/01/04 12:18:45;;;;;;;2.17;0.20;;;13.20;94.10;;;;;;5053646;28;20517;-64
2024/01/04 12:21:12;;;;;;;3.30;0.20;;;12.50;94.80;;;;;;5054963;28;20408;-64
2024/01/04 12:23:39;;;;;;;0.98;0.28;;;11.90;95.90;;;;;;5054702;28;20021;-64
2024/01/04 12:26:06;;;;;;;0.55;0.10;;;12.10;96.20;;;;;;5054576;28;20468;-64
2024/01/04 12:28:32;;;;;;;2.45;0.20;;;12.80;94.90;;;;;;5054501;28;20427;-64
2024/01/04 12:30:59;;;;;;;1.13;0.10;;;13.00;94.10;;;;;;5054534;28;20021;-63
2024/01/04 12:33:31;;;;;;;0.68;0.10;;;13.20;93.90;;;;;;5054407;28;20029;-64
2024/01/04 12:36:00;;;;;;;0.82;0.10;;;13.50;93.50;;;;;;5053215;28;20037;-64
2024/01/04 12:38:27;;;;;;;0.88;0.00;;;13.30;93.60;;;;;;5054444;28;20052;-64
2024/01/04 12:40:54;;;;;;;1.05;0.20;;;13.40;93.70;;;;;;5054153;28;20068;-64
2024/01/04 12:43:20;;;;;;;2.70;0.10;;;13.40;93.60;;;;;;5054480;28;20065;-64
2024/01/04 12:46:08;;;;;;;0.52;0.10;;;13.30;93.50;;;;;;5052982;28;20056;-64